createdAt,value
2022-10-15T00:02:01.212Z,99.90
2022-10-15T00:04:31.823Z,99.90
2022-10-15T00:07:02.360Z,99.90
2022-10-15T00:09:32.493Z,99.90
2022-10-15T00:12:00.786Z,99.90
2022-10-15T00:14:29.236Z,99.90
2022-10-15T00:17:02.600Z,99.90
2022-10-15T00:19:33.418Z,99.90
2022-10-15T00:24:30.431Z,99.90
2022-10-15T00:27:00.330Z,99.90
2022-10-15T00:29:28.688Z,99.90
2022-10-15T00:32:00.513Z,99.90
2022-10-15T00:34:28.801Z,99.90
2022-10-15T00:36:56.547Z,99.90
2022-10-15T00:39:26.989Z,99.90
2022-10-15T00:41:55.336Z,99.90
2022-10-15T00:44:26.817Z,99.90
2022-10-15T00:47:04.719Z,99.90
2022-10-15T00:49:48.869Z,99.90
2022-10-15T00:52:26.605Z,99.90
2022-10-15T00:55:11.545Z,99.90
2022-10-15T00:57:40.521Z,99.90
2022-10-15T01:00:13.011Z,99.90
2022-10-15T01:02:44.374Z,99.90
2022-10-15T01:05:16.353Z,99.90
2022-10-15T01:07:46.874Z,99.90
2022-10-15T01:10:35.704Z,99.90
2022-10-15T01:13:14.904Z,99.90
2022-10-15T01:16:18.445Z,99.90
2022-10-15T01:18:52.326Z,99.90
2022-10-15T01:21:37.646Z,99.90
2022-10-15T01:24:28.282Z,99.90
2022-10-15T01:27:21.193Z,99.90
2022-10-15T01:30:24.162Z,99.90
2022-10-15T01:33:27.677Z,99.90
2022-10-15T01:36:19.344Z,99.90
2022-10-15T01:39:30.236Z,99.90
2022-10-15T01:42:26.298Z,99.90
2022-10-15T01:45:00.699Z,99.90
2022-10-15T01:47:56.828Z,99.90
2022-10-15T01:50:34.122Z,99.90
2022-10-15T01:53:11.166Z,99.90
2022-10-15T01:55:44.261Z,99.90
2022-10-15T01:58:14.671Z,99.90
2022-10-15T02:00:43.374Z,99.90
2022-10-15T02:03:11.182Z,99.90
2022-10-15T02:05:45.670Z,99.90
2022-10-15T02:08:25.680Z,99.90
2022-10-15T02:11:11.906Z,99.90
2022-10-15T02:14:02.383Z,99.90
2022-10-15T02:16:59.753Z,99.90
2022-10-15T02:19:42.788Z,99.90
2022-10-15T02:22:49.582Z,99.90
2022-10-15T02:25:24.340Z,99.90
2022-10-15T02:27:59.494Z,99.90
2022-10-15T02:30:30.341Z,99.90
2022-10-15T02:33:00.430Z,99.90
2022-10-15T02:35:29.236Z,99.90
2022-10-15T02:38:05.650Z,99.90
2022-10-15T02:40:39.038Z,99.90
2022-10-15T02:43:13.223Z,99.90
2022-10-15T02:45:41.738Z,99.90
2022-10-15T02:48:10.349Z,99.90
2022-10-15T02:50:41.197Z,99.90
2022-10-15T02:53:09.237Z,99.90
2022-10-15T02:55:38.198Z,99.90
2022-10-15T02:58:05.760Z,99.90
2022-10-15T03:00:34.295Z,99.90
2022-10-15T03:03:03.399Z,99.90
2022-10-15T03:05:31.797Z,99.90
2022-10-15T03:08:03.630Z,99.90
2022-10-15T03:10:32.766Z,99.90
2022-10-15T03:13:10.482Z,99.90
2022-10-15T03:15:47.131Z,99.90
2022-10-15T03:18:16.309Z,99.90
2022-10-15T03:20:55.584Z,99.90
2022-10-15T03:23:24.747Z,99.90
2022-10-15T03:26:03.434Z,99.90
2022-10-15T03:28:33.880Z,99.90
2022-10-15T03:31:01.908Z,99.90
2022-10-15T03:33:31.378Z,99.90
2022-10-15T03:35:59.310Z,99.90
2022-10-15T03:38:29.472Z,99.90
2022-10-15T03:40:59.256Z,99.90
2022-10-15T03:43:37.398Z,99.90
2022-10-15T03:46:09.598Z,99.90
2022-10-15T03:48:50.661Z,99.90
2022-10-15T03:51:24.372Z,99.90
2022-10-15T03:53:59.274Z,99.90
2022-10-15T03:56:27.560Z,99.90
2022-10-15T03:59:07.438Z,99.90
2022-10-15T04:01:36.199Z,99.90
2022-10-15T04:04:06.809Z,99.90
2022-10-15T04:06:38.961Z,99.90
2022-10-15T04:09:12.008Z,99.90
2022-10-15T04:11:41.428Z,99.90
2022-10-15T04:14:09.809Z,99.90
2022-10-15T04:16:38.244Z,99.90
2022-10-15T04:19:17.818Z,99.90
2022-10-15T04:21:56.762Z,99.90
2022-10-15T04:24:34.710Z,99.90
2022-10-15T04:27:02.978Z,99.90
2022-10-15T04:29:34.952Z,99.90
2022-10-15T04:32:17.984Z,99.90
2022-10-15T04:34:47.534Z,99.90
2022-10-15T04:37:17.514Z,99.90
2022-10-15T04:39:45.154Z,99.90
2022-10-15T04:42:22.336Z,99.90
2022-10-15T04:44:53.417Z,99.90
2022-10-15T04:47:24.731Z,99.90
2022-10-15T04:50:03.896Z,99.90
2022-10-15T04:52:54.732Z,99.90
2022-10-15T04:55:31.206Z,99.90
2022-10-15T04:58:07.088Z,99.90
2022-10-15T05:00:38.829Z,99.90
2022-10-15T05:03:38.517Z,99.90
2022-10-15T05:06:13.974Z,99.90
2022-10-15T05:08:47.464Z,99.90
2022-10-15T05:11:25.823Z,99.90
2022-10-15T05:13:58.462Z,99.90
2022-10-15T05:16:29.507Z,99.90
2022-10-15T05:19:05.121Z,99.90
2022-10-15T05:21:37.406Z,99.90
2022-10-15T05:24:17.160Z,99.90
2022-10-15T05:27:14.301Z,99.90
2022-10-15T05:29:43.309Z,99.90
2022-10-15T05:32:14.101Z,99.90
2022-10-15T05:34:42.223Z,99.90
2022-10-15T05:37:15.211Z,99.90
2022-10-15T05:39:46.557Z,99.90
2022-10-15T05:42:17.087Z,99.90
2022-10-15T05:44:57.664Z,99.90
2022-10-15T05:47:28.150Z,99.90
2022-10-15T05:50:13.273Z,99.90
2022-10-15T05:52:45.401Z,99.90
2022-10-15T05:55:42.699Z,99.90
2022-10-15T05:58:15.732Z,99.90
2022-10-15T06:00:46.268Z,99.90
2022-10-15T06:03:14.939Z,99.90
2022-10-15T06:05:42.863Z,99.90
2022-10-15T06:08:11.604Z,99.90
2022-10-15T06:10:40.040Z,99.90
2022-10-15T06:13:09.185Z,99.90
2022-10-15T06:15:53.843Z,99.90
2022-10-15T06:18:23.332Z,99.90
2022-10-15T06:20:54.898Z,99.90
2022-10-15T06:23:24.459Z,99.90
2022-10-15T06:25:52.632Z,99.90
2022-10-15T06:28:21.195Z,99.90
2022-10-15T06:30:48.852Z,99.90
2022-10-15T06:33:19.550Z,99.90
2022-10-15T06:35:47.703Z,99.90
2022-10-15T06:38:15.593Z,99.90
2022-10-15T06:40:43.551Z,99.90
2022-10-15T06:43:12.567Z,99.90
2022-10-15T06:45:42.720Z,99.90
2022-10-15T06:48:18.744Z,99.90
2022-10-15T06:50:46.501Z,99.90
2022-10-15T06:53:14.218Z,99.90
2022-10-15T06:55:45.838Z,99.90
2022-10-15T06:58:13.706Z,99.90
2022-10-15T07:00:41.603Z,99.90
2022-10-15T07:03:12.545Z,99.90
2022-10-15T07:05:40.421Z,99.90
2022-10-15T07:08:08.959Z,99.90
2022-10-15T07:10:43.610Z,99.90
2022-10-15T07:13:11.672Z,99.90
2022-10-15T07:15:39.529Z,99.90
2022-10-15T07:18:07.580Z,99.90
2022-10-15T07:20:40.411Z,99.90
2022-10-15T07:23:08.026Z,99.90
2022-10-15T07:25:36.704Z,99.90
2022-10-15T07:28:04.852Z,99.90
2022-10-15T07:30:36.363Z,99.90
2022-10-15T07:33:04.357Z,99.90
2022-10-15T07:35:38.997Z,99.90
2022-10-15T07:38:07.097Z,99.90
2022-10-15T07:40:35.170Z,99.90
2022-10-15T07:43:04.446Z,99.90
2022-10-15T07:45:32.857Z,99.90
2022-10-15T07:48:03.285Z,99.90
2022-10-15T07:50:34.285Z,99.90
2022-10-15T07:53:07.110Z,99.90
2022-10-15T07:55:35.278Z,99.90
2022-10-15T07:58:06.082Z,99.90
2022-10-15T08:00:35.104Z,99.90
2022-10-15T08:03:03.207Z,99.90
2022-10-15T08:05:31.365Z,99.90
2022-10-15T08:08:00.102Z,99.90
2022-10-15T08:10:28.229Z,99.90
2022-10-15T08:12:57.583Z,99.90
2022-10-15T08:15:25.224Z,99.90
2022-10-15T08:17:56.944Z,99.90
2022-10-15T08:20:25.048Z,99.90
2022-10-15T08:22:53.423Z,99.90
2022-10-15T08:25:22.268Z,99.90
2022-10-15T08:27:50.668Z,99.90
2022-10-15T08:30:21.261Z,99.90
2022-10-15T08:32:52.355Z,99.90
2022-10-15T08:35:20.021Z,99.90
2022-10-15T08:37:47.862Z,99.90
2022-10-15T08:40:17.162Z,99.90
2022-10-15T08:42:46.934Z,99.90
2022-10-15T08:45:22.900Z,99.90
2022-10-15T08:48:07.576Z,99.90
2022-10-15T08:51:02.528Z,99.90
2022-10-15T08:53:49.740Z,99.90
2022-10-15T08:56:30.755Z,99.90
2022-10-15T08:59:08.133Z,99.90
2022-10-15T09:02:02.062Z,99.90
2022-10-15T09:04:52.329Z,99.90
2022-10-15T09:07:50.824Z,99.90
2022-10-15T09:11:00.042Z,99.90
2022-10-15T09:13:50.110Z,99.60
2022-10-15T09:16:38.398Z,99.60
2022-10-15T09:19:21.568Z,99.50
2022-10-15T09:21:51.386Z,99.40
2022-10-15T09:24:25.661Z,99.30
2022-10-15T09:27:27.095Z,99.00
2022-10-15T09:30:09.602Z,98.30
2022-10-15T09:32:52.006Z,98.30
2022-10-15T09:35:38.791Z,98.20
2022-10-15T09:38:35.470Z,98.10
2022-10-15T09:41:04.447Z,97.70
2022-10-15T09:43:39.400Z,97.40
2022-10-15T09:46:07.219Z,97.40
2022-10-15T09:49:04.497Z,97.20
2022-10-15T09:51:46.028Z,96.90
2022-10-15T09:54:42.898Z,96.70
2022-10-15T09:57:13.426Z,96.40
2022-10-15T09:59:52.322Z,96.40
2022-10-15T10:02:21.921Z,95.90
2022-10-15T10:04:58.526Z,96.30
2022-10-15T10:07:38.773Z,96.30
2022-10-15T10:10:35.340Z,96.10
2022-10-15T10:13:03.305Z,95.40
2022-10-15T10:15:43.777Z,95.90
2022-10-15T10:18:20.627Z,95.80
2022-10-15T10:20:57.595Z,95.70
2022-10-15T10:23:31.728Z,95.80
2022-10-15T10:26:02.668Z,95.70
2022-10-15T10:28:49.369Z,95.60
2022-10-15T10:31:18.348Z,95.40
2022-10-15T10:33:49.358Z,95.30
2022-10-15T10:36:43.378Z,95.00
2022-10-15T10:39:31.967Z,94.60
2022-10-15T10:42:23.058Z,94.50
2022-10-15T10:44:52.704Z,94.60
2022-10-15T10:47:31.441Z,94.60
2022-10-15T10:50:28.482Z,94.20
2022-10-15T10:52:57.735Z,94.20
2022-10-15T10:55:40.333Z,94.50
2022-10-15T10:58:23.478Z,94.30
2022-10-15T11:00:58.721Z,94.30
2022-10-15T11:03:43.162Z,94.20
2022-10-15T11:06:30.270Z,93.80
2022-10-15T11:09:26.250Z,93.30
2022-10-15T11:12:33.379Z,93.20
2022-10-15T11:15:36.139Z,93.10
2022-10-15T11:18:37.311Z,93.10
2022-10-15T11:21:43.847Z,93.00
2022-10-15T11:24:26.071Z,93.00
2022-10-15T11:27:11.910Z,93.20
2022-10-15T11:29:42.316Z,93.00
2022-10-15T11:32:42.119Z,93.00
2022-10-15T11:35:55.409Z,92.70
2022-10-15T11:38:52.062Z,92.80
2022-10-15T11:41:50.928Z,92.90
2022-10-15T11:44:28.673Z,92.80
2022-10-15T11:47:28.426Z,92.80
2022-10-15T11:50:33.050Z,92.40
2022-10-15T11:53:00.680Z,92.30
2022-10-15T11:55:41.544Z,91.80
2022-10-15T11:58:31.284Z,92.40
2022-10-15T12:01:09.037Z,92.10
2022-10-15T12:03:54.385Z,92.20
2022-10-15T12:06:28.031Z,92.20
2022-10-15T12:09:02.312Z,92.30
2022-10-15T12:11:51.846Z,92.20
2022-10-15T12:14:43.704Z,92.40
2022-10-15T12:17:22.642Z,92.40
2022-10-15T12:20:00.913Z,92.40
2022-10-15T12:22:44.453Z,92.40
2022-10-15T12:25:35.015Z,92.20
2022-10-15T12:28:12.063Z,92.00
2022-10-15T12:30:43.153Z,92.10
2022-10-15T12:33:29.313Z,92.00
2022-10-15T12:36:09.558Z,91.50
2022-10-15T12:38:43.347Z,91.90
2022-10-15T12:41:14.863Z,91.90
2022-10-15T12:43:54.126Z,91.80
2022-10-15T12:46:38.478Z,91.60
2022-10-15T12:49:27.819Z,91.40
2022-10-15T12:52:02.293Z,91.50
2022-10-15T12:54:48.985Z,91.70
2022-10-15T12:57:31.586Z,91.40
2022-10-15T13:00:25.563Z,91.50
2022-10-15T13:03:04.622Z,91.70
2022-10-15T13:05:44.050Z,91.60
2022-10-15T13:08:23.360Z,91.60
2022-10-15T13:10:55.724Z,91.60
2022-10-15T13:13:36.281Z,91.60
2022-10-15T13:16:13.220Z,91.60
2022-10-15T13:18:43.109Z,91.80
2022-10-15T13:21:13.785Z,91.90
2022-10-15T13:23:50.409Z,91.90
2022-10-15T13:26:27.669Z,91.80
2022-10-15T13:28:58.332Z,91.70
2022-10-15T13:31:36.699Z,91.70
2022-10-15T13:34:36.008Z,91.70
2022-10-15T13:37:04.940Z,91.80
2022-10-15T13:39:42.254Z,91.80
2022-10-15T13:42:15.358Z,91.70
2022-10-15T13:44:58.558Z,91.90
2022-10-15T13:47:32.592Z,91.70
2022-10-15T13:50:18.644Z,91.90
2022-10-15T13:52:50.452Z,91.90
2022-10-15T13:55:25.564Z,92.10
2022-10-15T13:58:10.013Z,92.10
2022-10-15T14:00:38.014Z,92.20
2022-10-15T14:03:26.930Z,92.30
2022-10-15T14:05:56.000Z,92.30
2022-10-15T14:08:32.981Z,92.40
2022-10-15T14:11:01.440Z,92.40
2022-10-15T14:13:29.981Z,92.50
2022-10-15T14:16:18.015Z,92.60
2022-10-15T14:18:52.029Z,92.60
2022-10-15T14:21:33.122Z,92.70
2022-10-15T14:24:21.918Z,92.70
2022-10-15T14:26:52.801Z,92.80
2022-10-15T14:29:29.683Z,92.90
2022-10-15T14:32:00.368Z,92.90
2022-10-15T14:34:38.845Z,93.00
2022-10-15T14:37:43.507Z,93.00
2022-10-15T14:40:16.484Z,93.10
2022-10-15T14:43:02.676Z,93.20
2022-10-15T14:45:37.005Z,93.30
2022-10-15T14:48:27.966Z,93.30
2022-10-15T14:51:00.875Z,93.40
2022-10-15T14:53:36.930Z,93.50
2022-10-15T14:56:20.459Z,93.50
2022-10-15T14:58:56.901Z,93.60
2022-10-15T15:01:27.946Z,93.60
2022-10-15T15:03:57.635Z,93.70
2022-10-15T15:06:25.572Z,93.80
2022-10-15T15:08:55.968Z,93.80
2022-10-15T15:11:27.894Z,93.80
2022-10-15T15:13:55.820Z,93.90
2022-10-15T15:16:23.901Z,93.90
2022-10-15T15:18:51.938Z,94.00
2022-10-15T15:21:24.335Z,94.00
2022-10-15T15:23:52.294Z,94.00
2022-10-15T15:26:25.854Z,94.00
2022-10-15T15:28:57.091Z,94.10
2022-10-15T15:31:25.505Z,94.00
2022-10-15T15:33:55.480Z,94.10
2022-10-15T15:36:23.991Z,94.10
2022-10-15T15:38:52.235Z,94.10
2022-10-15T15:41:22.904Z,94.20
2022-10-15T15:43:51.822Z,94.20
2022-10-15T15:46:20.023Z,94.30
2022-10-15T15:48:47.935Z,94.30
2022-10-15T15:51:30.877Z,94.40
2022-10-15T15:53:59.149Z,94.50
2022-10-15T15:56:27.300Z,94.50
2022-10-15T15:58:55.001Z,94.50
2022-10-15T16:01:25.620Z,94.60
2022-10-15T16:03:56.235Z,94.60
2022-10-15T16:06:24.413Z,94.70
2022-10-15T16:08:53.279Z,94.70
2022-10-15T16:11:21.484Z,94.70
2022-10-15T16:13:49.349Z,94.80
2022-10-15T16:16:18.508Z,95.10
2022-10-15T16:18:46.444Z,94.90
2022-10-15T16:21:14.450Z,94.90
2022-10-15T16:23:42.602Z,94.90
2022-10-15T16:26:13.244Z,95.00
2022-10-15T16:28:41.036Z,95.00
2022-10-15T16:31:30.343Z,95.00
2022-10-15T16:34:06.462Z,95.10
2022-10-15T16:36:39.806Z,95.10
2022-10-15T16:39:07.606Z,95.10
2022-10-15T16:41:37.864Z,95.10
2022-10-15T16:44:05.635Z,95.50
2022-10-15T16:46:33.783Z,95.20
2022-10-15T16:49:04.553Z,95.20
2022-10-15T16:51:32.582Z,95.20
2022-10-15T16:54:00.617Z,95.20
2022-10-15T16:56:32.882Z,95.20
2022-10-15T16:59:01.655Z,95.20
2022-10-15T17:01:30.249Z,95.30
2022-10-15T17:03:59.320Z,95.20
2022-10-15T17:06:30.471Z,95.30
2022-10-15T17:09:00.326Z,95.40
2022-10-15T17:11:31.812Z,95.30
2022-10-15T17:14:01.812Z,95.20
2022-10-15T17:16:40.141Z,95.20
2022-10-15T17:19:09.076Z,95.20
2022-10-15T17:21:42.440Z,95.10
2022-10-15T17:24:17.990Z,95.10
2022-10-15T17:26:50.041Z,95.10
2022-10-15T17:29:20.951Z,95.10
2022-10-15T17:31:50.020Z,95.30
2022-10-15T17:34:18.612Z,95.40
2022-10-15T17:36:49.964Z,95.80
2022-10-15T17:39:20.861Z,96.00
2022-10-15T17:41:51.225Z,96.40
2022-10-15T17:44:19.524Z,96.60
2022-10-15T17:49:35.331Z,96.90
2022-10-15T17:52:03.497Z,97.20
2022-10-15T17:54:33.625Z,97.20
2022-10-15T17:57:01.904Z,97.30
2022-10-15T17:59:29.696Z,97.40
2022-10-15T18:02:03.037Z,97.50
2022-10-15T18:04:36.927Z,98.00
2022-10-15T18:07:05.151Z,97.80
2022-10-15T18:09:35.882Z,97.80
2022-10-15T18:12:04.056Z,97.90
2022-10-15T18:14:35.106Z,98.10
2022-10-15T18:17:05.844Z,98.20
2022-10-15T18:19:34.096Z,98.30
2022-10-15T18:22:04.537Z,98.40
2022-10-15T18:24:34.599Z,98.60
2022-10-15T18:27:10.902Z,98.70
2022-10-15T18:29:39.788Z,98.80
2022-10-15T18:32:07.833Z,98.90
2022-10-15T18:34:37.777Z,98.90
2022-10-15T18:37:06.015Z,99.00
2022-10-15T18:39:34.004Z,99.10
2022-10-15T18:42:02.757Z,99.10
2022-10-15T18:44:30.688Z,99.30
2022-10-15T18:47:01.534Z,99.40
2022-10-15T18:49:29.372Z,99.50
2022-10-15T18:52:00.412Z,99.50
2022-10-15T18:54:36.651Z,99.60
2022-10-15T18:57:05.563Z,99.80
2022-10-15T18:59:33.315Z,99.70
2022-10-15T19:02:02.766Z,99.90
2022-10-15T19:04:31.287Z,99.90
2022-10-15T19:07:02.514Z,99.90
2022-10-15T19:09:31.685Z,99.90
2022-10-15T19:11:59.716Z,99.90
2022-10-15T19:14:28.547Z,99.90
2022-10-15T19:16:57.449Z,99.90
2022-10-15T19:19:26.658Z,99.90
2022-10-15T19:21:58.468Z,99.90
2022-10-15T19:24:26.486Z,99.90
2022-10-15T19:26:54.749Z,99.90
2022-10-15T19:29:22.518Z,99.90
2022-10-15T19:31:54.742Z,99.90
2022-10-15T19:34:23.450Z,99.90
2022-10-15T19:36:52.162Z,99.90
2022-10-15T19:39:24.768Z,99.90
2022-10-15T19:41:53.746Z,99.90
2022-10-15T19:44:25.869Z,99.90
2022-10-15T19:46:56.395Z,99.90
2022-10-15T19:49:25.579Z,99.90
2022-10-15T19:51:53.988Z,99.90
2022-10-15T19:54:22.150Z,99.90
2022-10-15T19:56:50.342Z,99.90
2022-10-15T19:59:18.467Z,99.90
2022-10-15T20:01:47.013Z,99.90
2022-10-15T20:04:14.682Z,99.90
2022-10-15T20:06:43.827Z,99.90
2022-10-15T20:09:11.463Z,99.90
2022-10-15T20:11:39.606Z,99.90
2022-10-15T20:14:07.622Z,99.90
2022-10-15T20:16:35.726Z,99.90
2022-10-15T20:19:05.636Z,99.90
2022-10-15T20:21:34.100Z,99.70
2022-10-15T20:24:05.320Z,99.70
2022-10-15T20:26:33.716Z,99.60
2022-10-15T20:29:01.455Z,99.50
2022-10-15T20:31:33.151Z,99.50
2022-10-15T20:34:02.868Z,99.40
2022-10-15T20:36:31.245Z,99.40
2022-10-15T20:39:00.925Z,99.30
2022-10-15T20:41:29.353Z,99.30
2022-10-15T20:43:57.394Z,99.20
2022-10-15T20:46:32.959Z,99.20
2022-10-15T20:49:08.442Z,99.20
2022-10-15T20:51:40.050Z,99.20
2022-10-15T20:54:08.546Z,99.10
2022-10-15T20:56:36.591Z,99.10
2022-10-15T20:59:05.325Z,99.10
2022-10-15T21:01:35.065Z,98.90
2022-10-15T21:04:03.885Z,98.90
2022-10-15T21:06:32.177Z,98.80
2022-10-15T21:09:00.239Z,98.70
2022-10-15T21:11:28.477Z,98.70
2022-10-15T21:13:56.559Z,98.60
2022-10-15T21:16:27.457Z,98.50
2022-10-15T21:18:56.285Z,98.40
2022-10-15T21:21:24.591Z,98.30
2022-10-15T21:23:52.908Z,98.20
2022-10-15T21:26:22.216Z,98.20
2022-10-15T21:28:55.090Z,98.10
2022-10-15T21:31:23.832Z,98.00
2022-10-15T21:33:52.311Z,98.00
2022-10-15T21:36:23.062Z,98.10
2022-10-15T21:39:07.506Z,97.80
2022-10-15T21:41:38.753Z,97.70
2022-10-15T21:44:07.911Z,97.70
2022-10-15T21:46:36.330Z,97.70
2022-10-15T21:49:04.247Z,97.50
2022-10-15T21:51:36.131Z,97.50
2022-10-15T21:54:06.070Z,97.50
2022-10-15T21:56:35.180Z,97.40
2022-10-15T21:59:03.032Z,97.40
2022-10-15T22:01:33.852Z,97.30
2022-10-15T22:04:06.803Z,97.20
2022-10-15T22:06:35.780Z,97.20
2022-10-15T22:09:04.621Z,97.20
2022-10-15T22:11:35.583Z,97.10
2022-10-15T22:14:06.364Z,97.10
2022-10-15T22:16:36.943Z,97.10
2022-10-15T22:19:05.833Z,97.00
2022-10-15T22:21:36.639Z,96.90
2022-10-15T22:24:08.330Z,96.90
2022-10-15T22:26:39.074Z,96.80
2022-10-15T22:29:09.354Z,96.80
2022-10-15T22:31:37.412Z,96.70
2022-10-15T22:34:05.173Z,96.70
2022-10-15T22:36:33.237Z,96.80
2022-10-15T22:39:05.226Z,96.70
2022-10-15T22:41:41.950Z,96.60
2022-10-15T22:44:15.227Z,96.60
2022-10-15T22:46:49.764Z,96.50
2022-10-15T22:49:22.792Z,96.50
2022-10-15T22:51:51.174Z,96.50
2022-10-15T22:54:20.925Z,96.50
2022-10-15T22:56:50.124Z,96.40
2022-10-15T22:59:18.121Z,96.30
2022-10-15T23:01:47.027Z,96.30
2022-10-15T23:04:16.648Z,96.30
2022-10-15T23:06:45.169Z,96.20
2022-10-15T23:09:18.222Z,96.20
2022-10-15T23:11:46.898Z,96.10
2022-10-15T23:14:16.504Z,96.10
2022-10-15T23:16:49.836Z,96.10
2022-10-15T23:19:20.485Z,96.10
2022-10-15T23:21:49.728Z,96.10
2022-10-15T23:24:20.805Z,95.90
2022-10-15T23:26:49.359Z,96.10
2022-10-15T23:29:23.292Z,96.10
2022-10-15T23:31:52.782Z,96.10
2022-10-15T23:34:22.625Z,96.10
2022-10-15T23:36:51.887Z,96.10
2022-10-15T23:39:24.089Z,96.10
2022-10-15T23:41:52.687Z,96.10
2022-10-15T23:44:20.731Z,96.10
2022-10-15T23:46:49.166Z,96.20
2022-10-15T23:49:17.023Z,96.10
2022-10-15T23:51:45.240Z,96.10
2022-10-15T23:54:18.368Z,96.20
2022-10-15T23:56:47.638Z,96.30
2022-10-15T23:59:17.253Z,96.30
